createdAt,value
2023-02-16T00:01:59.233Z,99104.19
2023-02-16T00:04:28.754Z,99102.63
2023-02-16T00:07:00.261Z,99094.53
2023-02-16T00:09:29.320Z,99092.88
2023-02-16T00:12:14.926Z,99096.63
2023-02-16T00:14:41.451Z,99094.28
2023-02-16T00:17:11.270Z,99100.03
2023-02-16T00:19:40.256Z,99085.69
2023-02-16T00:22:08.152Z,99094.38
2023-02-16T00:24:35.262Z,99101.28
2023-02-16T00:27:01.973Z,99093.41
2023-02-16T00:29:37.282Z,99098.38
2023-02-16T00:32:05.901Z,99101.19
2023-02-16T00:34:35.633Z,99095.72
2023-02-16T00:37:05.166Z,99088.88
2023-02-16T00:39:32.416Z,99097.31
2023-02-16T00:42:03.179Z,99087.53
2023-02-16T00:44:34.205Z,99088.16
2023-02-16T00:47:10.962Z,99108.13
2023-02-16T00:49:37.486Z,99093.50
2023-02-16T00:52:24.280Z,99107.38
2023-02-16T00:54:50.798Z,99103.25
2023-02-16T00:57:19.008Z,99087.75
2023-02-16T00:59:47.160Z,99109.50
2023-02-16T01:02:14.016Z,99097.56
2023-02-16T01:04:40.832Z,99106.06
2023-02-16T01:07:35.043Z,99091.84
2023-02-16T01:10:24.365Z,99100.91
2023-02-16T01:12:50.895Z,99105.22
2023-02-16T01:15:21.221Z,99102.78
2023-02-16T01:17:47.762Z,99097.66
2023-02-16T01:20:16.746Z,99084.63
2023-02-16T01:22:43.242Z,99101.84
2023-02-16T01:25:10.529Z,99097.22
2023-02-16T01:27:38.373Z,99102.25
2023-02-16T01:30:06.593Z,99087.56
2023-02-16T01:32:36.933Z,99099.13
2023-02-16T01:35:06.833Z,99094.28
2023-02-16T01:37:36.766Z,99096.59
2023-02-16T01:40:07.147Z,99108.16
2023-02-16T01:42:44.911Z,99102.72
2023-02-16T01:45:17.426Z,99108.69
2023-02-16T01:47:54.487Z,99100.91
2023-02-16T01:50:24.640Z,99096.81
2023-02-16T01:53:01.707Z,99101.72
2023-02-16T01:55:41.581Z,99091.56
2023-02-16T01:58:45.104Z,99091.13
2023-02-16T02:01:36.791Z,99090.09
2023-02-16T02:04:30.720Z,99087.66
2023-02-16T02:06:57.244Z,99092.59
2023-02-16T02:09:38.532Z,99080.22
2023-02-16T02:12:37.807Z,99089.78
2023-02-16T02:15:09.201Z,99084.22
2023-02-16T02:17:38.507Z,99083.97
2023-02-16T02:20:11.059Z,99090.59
2023-02-16T02:23:20.283Z,99085.53
2023-02-16T02:26:07.097Z,99087.97
2023-02-16T02:28:54.735Z,99086.41
2023-02-16T02:31:37.262Z,99089.03
2023-02-16T02:34:18.950Z,99094.06
2023-02-16T02:37:00.654Z,99076.00
2023-02-16T02:39:45.571Z,99092.34
2023-02-16T02:42:40.822Z,99085.28
2023-02-16T02:45:14.152Z,99089.59
2023-02-16T02:47:43.817Z,99092.94
2023-02-16T02:51:12.340Z,99094.75
2023-02-16T02:53:50.239Z,99089.03
2023-02-16T02:56:39.549Z,99086.44
2023-02-16T02:59:27.959Z,99077.06
2023-02-16T03:01:59.555Z,99090.41
2023-02-16T03:04:30.578Z,99084.97
2023-02-16T03:06:59.205Z,99081.19
2023-02-16T03:09:26.393Z,99070.25
2023-02-16T03:12:13.987Z,99089.31
2023-02-16T03:15:01.423Z,99088.09
2023-02-16T03:17:53.676Z,99080.28
2023-02-16T03:20:42.681Z,99070.03
2023-02-16T03:23:31.094Z,99069.41
2023-02-16T03:26:16.054Z,99070.88
2023-02-16T03:29:02.976Z,99090.47
2023-02-16T03:31:36.601Z,99087.94
2023-02-16T03:34:03.309Z,99071.94
2023-02-16T03:36:33.409Z,99082.53
2023-02-16T03:39:00.559Z,99078.91
2023-02-16T03:41:31.635Z,99081.31
2023-02-16T03:43:58.296Z,99085.28
2023-02-16T03:46:24.982Z,99081.94
2023-02-16T03:48:51.490Z,99085.28
2023-02-16T03:51:18.140Z,99072.75
2023-02-16T03:53:44.605Z,99090.41
2023-02-16T03:56:11.419Z,99084.84
2023-02-16T03:58:37.953Z,99077.16
2023-02-16T04:01:04.781Z,99080.44
2023-02-16T04:03:31.488Z,99080.44
2023-02-16T04:05:58.006Z,99086.63
2023-02-16T04:08:24.536Z,99071.09
2023-02-16T04:10:51.053Z,99070.25
2023-02-16T04:13:17.560Z,99067.63
2023-02-16T04:15:44.095Z,99089.22
2023-02-16T04:18:13.693Z,99081.44
2023-02-16T04:20:42.300Z,99077.06
2023-02-16T04:23:09.030Z,99083.66
2023-02-16T04:25:35.766Z,99088.94
2023-02-16T04:28:02.274Z,99105.69
2023-02-16T04:30:31.065Z,99106.53
2023-02-16T04:32:59.343Z,99100.75
2023-02-16T04:35:25.880Z,99095.34
2023-02-16T04:37:52.355Z,99099.66
2023-02-16T04:40:19.323Z,99086.25
2023-02-16T04:42:46.300Z,99108.50
2023-02-16T04:45:16.498Z,99098.81
2023-02-16T04:47:46.169Z,99104.03
2023-02-16T04:50:14.114Z,99099.66
2023-02-16T04:52:41.582Z,99096.06
2023-02-16T04:55:10.799Z,99095.41
2023-02-16T04:57:39.227Z,99106.00
2023-02-16T05:00:10.060Z,99100.47
2023-02-16T05:02:36.557Z,99094.38
2023-02-16T05:05:03.117Z,99095.88
2023-02-16T05:07:30.037Z,99097.66
2023-02-16T05:09:56.521Z,99089.25
2023-02-16T05:12:45.922Z,99092.25
2023-02-16T05:15:12.532Z,99100.00
2023-02-16T05:17:39.042Z,99103.47
2023-02-16T05:20:06.632Z,99095.41
2023-02-16T05:22:34.438Z,99093.28
2023-02-16T05:25:02.132Z,99112.91
2023-02-16T05:27:30.173Z,99100.94
2023-02-16T05:29:56.742Z,99098.81
2023-02-16T05:32:23.468Z,99083.81
2023-02-16T05:34:50.258Z,99097.00
2023-02-16T05:37:18.372Z,99105.41
2023-02-16T05:39:48.499Z,99094.88
2023-02-16T05:42:15.499Z,99100.00
2023-02-16T05:44:42.160Z,99082.81
2023-02-16T05:47:08.696Z,99111.97
2023-02-16T05:49:35.345Z,99109.00
2023-02-16T05:52:02.172Z,99100.19
2023-02-16T05:54:28.717Z,99098.16
2023-02-16T05:56:55.590Z,99101.47
2023-02-16T05:59:22.386Z,99111.09
2023-02-16T06:01:51.924Z,99107.75
2023-02-16T06:04:19.856Z,99113.56
2023-02-16T06:06:49.006Z,99086.44
2023-02-16T06:09:15.494Z,99104.56
2023-02-16T06:11:42.567Z,99107.13
2023-02-16T06:14:35.463Z,99108.88
2023-02-16T06:17:01.961Z,99102.06
2023-02-16T06:19:28.447Z,99100.84
2023-02-16T06:21:55.015Z,99102.78
2023-02-16T06:24:21.505Z,99103.34
2023-02-16T06:26:51.196Z,99095.41
2023-02-16T06:29:17.734Z,99112.91
2023-02-16T06:31:44.490Z,99114.50
2023-02-16T06:34:11.145Z,99114.78
2023-02-16T06:36:37.895Z,99104.50
2023-02-16T06:39:04.764Z,99107.13
2023-02-16T06:41:31.710Z,99112.44
2023-02-16T06:44:04.117Z,99105.63
2023-02-16T06:46:31.055Z,99111.31
2023-02-16T06:48:57.847Z,99113.47
2023-02-16T06:51:24.372Z,99118.06
2023-02-16T06:53:51.704Z,99129.19
2023-02-16T06:56:20.144Z,99130.75
2023-02-16T06:58:46.802Z,99128.16
2023-02-16T07:01:13.562Z,99128.16
2023-02-16T07:03:40.357Z,99141.34
2023-02-16T07:06:07.038Z,99146.97
2023-02-16T07:08:35.693Z,99149.41
2023-02-16T07:11:02.531Z,99146.78
2023-02-16T07:13:28.996Z,99151.25
2023-02-16T07:15:55.510Z,99160.22
2023-02-16T07:18:22.613Z,99154.31
2023-02-16T07:20:49.117Z,99155.63
2023-02-16T07:23:15.674Z,99167.53
2023-02-16T07:25:42.170Z,99168.72
2023-02-16T07:28:08.749Z,99159.06
2023-02-16T07:30:36.105Z,99167.53
2023-02-16T07:33:02.964Z,99155.66
2023-02-16T07:35:29.895Z,99153.84
2023-02-16T07:37:56.625Z,99163.59
2023-02-16T07:40:23.183Z,99168.84
2023-02-16T07:42:51.992Z,99158.25
2023-02-16T07:45:19.099Z,99157.91
2023-02-16T07:47:45.737Z,99148.53
2023-02-16T07:50:12.404Z,99127.31
2023-02-16T07:52:39.516Z,99129.16
2023-02-16T07:55:06.433Z,99142.19
2023-02-16T07:57:32.980Z,99141.50
2023-02-16T07:59:59.565Z,99128.88
2023-02-16T08:02:27.430Z,99144.69
2023-02-16T08:04:54.145Z,99137.81
2023-02-16T08:07:26.779Z,99150.28
2023-02-16T08:09:53.504Z,99151.59
2023-02-16T08:12:21.275Z,99144.13
2023-02-16T08:14:47.906Z,99151.78
2023-02-16T08:17:14.947Z,99151.25
2023-02-16T08:19:41.730Z,99143.47
2023-02-16T08:22:09.172Z,99137.59
2023-02-16T08:24:35.950Z,99166.84
2023-02-16T08:27:04.375Z,99164.94
2023-02-16T08:29:32.493Z,99159.72
2023-02-16T08:31:59.727Z,99164.88
2023-02-16T08:34:26.876Z,99166.53
2023-02-16T08:36:56.840Z,99160.75
2023-02-16T08:39:30.854Z,99172.84
2023-02-16T08:41:58.643Z,99176.31
2023-02-16T08:44:26.518Z,99180.16
2023-02-16T08:46:55.591Z,99184.22
2023-02-16T08:49:26.184Z,99178.50
2023-02-16T08:51:55.548Z,99177.56
2023-02-16T08:54:30.516Z,99180.59
2023-02-16T08:56:59.159Z,99166.75
2023-02-16T08:59:28.458Z,99172.50
2023-02-16T09:01:57.008Z,99167.41
2023-02-16T09:04:25.881Z,99155.13
2023-02-16T09:06:56.434Z,99169.63
2023-02-16T09:09:26.729Z,99173.19
2023-02-16T09:11:57.852Z,99171.00
2023-02-16T09:14:25.201Z,99175.50
2023-02-16T09:16:56.259Z,99168.28
2023-02-16T09:19:24.673Z,99165.19
2023-02-16T09:21:53.784Z,99144.59
2023-02-16T09:24:20.270Z,99175.88
2023-02-16T09:26:47.090Z,99169.97
2023-02-16T09:29:14.208Z,99163.91
2023-02-16T09:31:41.528Z,99181.09
2023-02-16T09:34:14.010Z,99181.25
2023-02-16T09:36:41.096Z,99167.53
2023-02-16T09:39:08.294Z,99179.56
2023-02-16T09:41:40.859Z,99187.25
2023-02-16T09:44:25.843Z,99181.66
2023-02-16T09:46:58.868Z,99155.78
2023-02-16T09:49:44.027Z,99189.22
2023-02-16T09:52:28.501Z,99172.31
2023-02-16T09:54:59.451Z,99173.59
2023-02-16T09:57:31.706Z,99187.72
2023-02-16T10:00:07.930Z,99184.56
2023-02-16T10:02:47.284Z,99192.91
2023-02-16T10:05:20.335Z,99181.59
2023-02-16T10:07:59.950Z,99186.63
2023-02-16T10:10:40.188Z,99186.03
2023-02-16T10:13:17.786Z,99177.03
2023-02-16T10:15:46.187Z,99159.34
2023-02-16T10:18:29.461Z,99184.84
2023-02-16T10:21:00.575Z,99168.81
2023-02-16T10:23:58.958Z,99173.75
2023-02-16T10:26:42.891Z,99171.97
2023-02-16T10:29:23.100Z,99168.78
2023-02-16T10:32:03.136Z,99176.91
2023-02-16T10:34:50.086Z,99177.34
2023-02-16T10:37:16.576Z,99173.56
2023-02-16T10:39:43.013Z,99175.66
2023-02-16T10:42:23.909Z,99172.59
2023-02-16T10:45:34.589Z,99169.91
2023-02-16T10:48:01.271Z,99163.72
2023-02-16T10:50:35.946Z,99159.94
2023-02-16T10:53:10.822Z,99167.28
2023-02-16T10:55:38.389Z,99160.44
2023-02-16T10:58:05.093Z,99156.97
2023-02-16T11:00:56.707Z,99166.47
2023-02-16T11:03:26.133Z,99169.16
2023-02-16T11:05:53.641Z,99161.31
2023-02-16T11:08:20.572Z,99146.16
2023-02-16T11:10:53.374Z,99147.84
2023-02-16T11:13:34.423Z,99116.22
2023-02-16T11:16:08.853Z,99141.59
2023-02-16T11:18:45.713Z,99140.03
2023-02-16T11:21:13.329Z,99138.97
2023-02-16T11:23:42.175Z,99133.91
2023-02-16T11:26:14.508Z,99149.94
2023-02-16T11:28:43.497Z,99134.66
2023-02-16T11:31:12.454Z,99143.84
2023-02-16T11:33:41.446Z,99132.16
2023-02-16T11:36:20.215Z,99133.00
2023-02-16T11:39:02.137Z,99120.16
2023-02-16T11:41:30.117Z,99112.72
2023-02-16T11:43:57.904Z,99121.59
2023-02-16T11:46:24.845Z,99098.41
2023-02-16T11:48:55.429Z,99123.25
2023-02-16T11:51:34.956Z,99111.25
2023-02-16T11:54:06.071Z,99119.28
2023-02-16T11:56:35.415Z,99111.75
2023-02-16T11:59:07.252Z,99121.63
2023-02-16T12:01:55.466Z,99112.00
2023-02-16T12:04:40.436Z,99109.19
2023-02-16T12:07:45.616Z,99103.19
2023-02-16T12:10:29.555Z,99105.03
2023-02-16T12:13:16.513Z,99099.75
2023-02-16T12:16:12.735Z,99095.19
2023-02-16T12:18:58.410Z,99088.97
2023-02-16T12:21:45.446Z,99088.19
2023-02-16T12:24:27.437Z,99093.72
2023-02-16T12:26:58.439Z,99078.88
2023-02-16T12:29:34.064Z,99085.84
2023-02-16T12:32:06.826Z,99086.03
2023-02-16T12:34:47.068Z,99065.00
2023-02-16T12:37:39.209Z,99076.63
2023-02-16T12:40:46.440Z,99062.88
2023-02-16T12:43:40.989Z,99062.25
2023-02-16T12:46:47.108Z,99053.03
2023-02-16T12:49:29.693Z,99045.78
2023-02-16T12:52:31.711Z,99043.25
2023-02-16T12:55:36.621Z,99031.44
2023-02-16T12:58:21.005Z,99017.47
2023-02-16T13:00:52.474Z,99026.56
2023-02-16T13:03:25.826Z,99019.06
2023-02-16T13:06:26.452Z,99016.06
2023-02-16T13:09:04.585Z,99019.97
2023-02-16T13:11:49.252Z,99008.53
2023-02-16T13:14:21.805Z,98990.91
2023-02-16T13:16:55.606Z,98999.78
2023-02-16T13:19:24.141Z,98985.84
2023-02-16T13:21:57.181Z,98995.84
2023-02-16T13:25:07.050Z,98990.06
2023-02-16T13:28:03.853Z,98983.00
2023-02-16T13:30:40.413Z,98981.00
2023-02-16T13:33:14.578Z,98987.56
2023-02-16T13:35:57.361Z,98987.25
2023-02-16T13:38:43.086Z,98980.44
2023-02-16T13:41:28.502Z,98978.53
2023-02-16T13:44:07.201Z,98961.50
2023-02-16T13:46:41.512Z,98941.69
2023-02-16T13:49:30.405Z,98963.28
2023-02-16T13:51:58.673Z,98959.34
2023-02-16T13:54:30.674Z,98944.72
2023-02-16T13:56:57.828Z,98930.38
2023-02-16T13:59:26.296Z,98953.91
2023-02-16T14:01:55.125Z,98941.69
2023-02-16T14:04:31.217Z,98944.50
2023-02-16T14:07:01.226Z,98940.78
2023-02-16T14:09:36.216Z,98933.97
2023-02-16T14:12:04.579Z,98935.75
2023-02-16T14:14:33.941Z,98938.13
2023-02-16T14:17:19.210Z,98940.59
2023-02-16T14:19:52.950Z,98937.91
2023-02-16T14:22:23.327Z,98931.38
2023-02-16T14:24:58.768Z,98936.72
2023-02-16T14:27:44.069Z,98933.16
2023-02-16T14:30:35.783Z,98902.00
2023-02-16T14:33:19.447Z,98937.66
2023-02-16T14:35:59.914Z,98944.41
2023-02-16T14:38:32.941Z,98927.53
2023-02-16T14:41:02.505Z,98938.09
2023-02-16T14:43:46.061Z,98929.00
2023-02-16T14:46:27.176Z,98937.28
2023-02-16T14:49:29.094Z,98932.56
2023-02-16T14:52:16.940Z,98935.50
2023-02-16T14:55:07.985Z,98934.06
2023-02-16T14:57:37.536Z,98932.31
2023-02-16T15:00:42.102Z,98930.47
2023-02-16T15:03:24.330Z,98938.88
2023-02-16T15:06:02.440Z,98938.00
2023-02-16T15:08:38.070Z,98931.03
2023-02-16T15:11:20.282Z,98936.72
2023-02-16T15:13:51.805Z,98940.38
2023-02-16T15:16:18.422Z,98905.72
2023-02-16T15:18:56.213Z,98935.66
2023-02-16T15:21:28.351Z,98922.19
2023-02-16T15:23:57.457Z,98919.59
2023-02-16T15:26:30.329Z,98918.34
2023-02-16T15:29:22.702Z,98903.00
2023-02-16T15:31:49.571Z,98919.72
2023-02-16T15:34:28.825Z,98922.19
2023-02-16T15:36:59.034Z,98919.97
2023-02-16T15:39:48.409Z,98915.13
2023-02-16T15:42:27.454Z,98912.50
2023-02-16T15:44:53.968Z,98915.94
2023-02-16T15:47:28.621Z,98923.56
2023-02-16T15:49:57.246Z,98930.69
2023-02-16T15:52:36.955Z,98923.81
2023-02-16T15:55:06.892Z,98923.66
2023-02-16T15:57:38.748Z,98923.63
2023-02-16T16:00:20.831Z,98936.88
2023-02-16T16:02:50.462Z,98930.66
2023-02-16T16:05:27.541Z,98930.63
2023-02-16T16:07:57.529Z,98919.16
2023-02-16T16:10:35.656Z,98931.47
2023-02-16T16:13:09.803Z,98939.34
2023-02-16T16:15:41.634Z,98922.75
2023-02-16T16:18:44.691Z,98941.94
2023-02-16T16:21:34.267Z,98945.47
2023-02-16T16:24:07.781Z,98925.81
2023-02-16T16:26:50.897Z,98888.50
2023-02-16T16:29:31.893Z,98956.63
2023-02-16T16:31:58.636Z,98950.41
2023-02-16T16:34:41.954Z,98956.06
2023-02-16T16:37:38.057Z,98961.13
2023-02-16T16:40:08.784Z,98969.53
2023-02-16T16:42:39.256Z,98972.25
2023-02-16T16:45:34.226Z,98959.84
2023-02-16T16:48:07.457Z,98967.75
2023-02-16T16:50:39.419Z,98964.19
2023-02-16T16:53:30.851Z,98969.88
2023-02-16T16:56:02.137Z,98951.94
2023-02-16T16:58:29.089Z,98966.38
2023-02-16T17:00:59.948Z,98959.34
2023-02-16T17:03:30.582Z,98987.56
2023-02-16T17:05:58.502Z,98972.59
2023-02-16T17:08:27.309Z,98987.16
2023-02-16T17:10:58.185Z,98984.75
2023-02-16T17:13:27.412Z,98994.69
2023-02-16T17:16:04.442Z,98998.75
2023-02-16T17:18:31.204Z,98984.47
2023-02-16T17:20:58.071Z,99000.53
2023-02-16T17:23:27.021Z,99013.22
2023-02-16T17:25:53.569Z,99013.94
2023-02-16T17:28:20.802Z,99019.81
2023-02-16T17:30:47.369Z,99006.84
2023-02-16T17:33:14.119Z,99002.84
2023-02-16T17:35:43.333Z,99002.03
2023-02-16T17:38:13.205Z,99017.34
2023-02-16T17:40:41.325Z,99020.69
2023-02-16T17:43:13.454Z,99013.31
2023-02-16T17:45:40.303Z,99003.53
2023-02-16T17:48:10.432Z,99018.84
2023-02-16T17:50:36.897Z,99007.00
2023-02-16T17:53:03.433Z,99028.19
2023-02-16T17:55:30.018Z,99033.66
2023-02-16T17:57:59.634Z,99034.66
2023-02-16T18:00:29.213Z,99026.34
2023-02-16T18:02:58.762Z,99037.16
2023-02-16T18:05:27.401Z,99040.16
2023-02-16T18:07:53.935Z,99032.50
2023-02-16T18:10:35.456Z,99041.31
2023-02-16T18:13:02.113Z,99045.28
2023-02-16T18:15:28.835Z,99050.44
2023-02-16T18:18:00.362Z,99057.94
2023-02-16T18:20:27.450Z,99036.94
2023-02-16T18:22:54.428Z,99051.72
2023-02-16T18:25:21.172Z,99047.19
2023-02-16T18:27:47.718Z,99068.03
2023-02-16T18:30:15.305Z,99059.53
2023-02-16T18:32:42.592Z,99075.22
2023-02-16T18:35:10.758Z,99082.16
2023-02-16T18:37:37.635Z,99072.78
2023-02-16T18:40:06.541Z,99081.84
2023-02-16T18:42:33.409Z,99086.34
2023-02-16T18:45:00.130Z,99086.75
2023-02-16T18:47:29.819Z,99097.25
2023-02-16T18:50:00.360Z,99099.06
2023-02-16T18:52:29.985Z,99092.06
2023-02-16T18:54:59.714Z,99093.03
2023-02-16T18:57:29.945Z,99078.03
2023-02-16T18:59:59.066Z,99093.03
2023-02-16T19:02:30.213Z,99101.69
2023-02-16T19:05:00.268Z,99109.00
2023-02-16T19:07:27.960Z,99088.75
2023-02-16T19:09:57.149Z,99107.69
2023-02-16T19:12:23.886Z,99117.00
2023-02-16T19:14:50.466Z,99105.78
2023-02-16T19:17:17.233Z,99121.50
2023-02-16T19:19:44.207Z,99124.25
2023-02-16T19:22:11.088Z,99119.16
2023-02-16T19:24:38.709Z,99125.53
2023-02-16T19:27:05.334Z,99110.50
2023-02-16T19:29:32.125Z,99120.38
2023-02-16T19:31:58.927Z,99130.91
2023-02-16T19:34:28.360Z,99115.22
2023-02-16T19:37:32.733Z,99147.09
2023-02-16T19:39:59.352Z,99116.03
2023-02-16T19:42:30.974Z,99112.84
2023-02-16T19:45:00.721Z,99148.06
2023-02-16T19:47:27.219Z,99163.16
2023-02-16T19:50:03.864Z,99153.56
2023-02-16T19:52:30.553Z,99161.41
2023-02-16T19:55:00.217Z,99153.97
2023-02-16T19:57:30.204Z,99157.16
2023-02-16T19:59:59.736Z,99146.22
2023-02-16T20:02:29.502Z,99153.44
2023-02-16T20:05:06.429Z,99154.56
2023-02-16T20:07:35.014Z,99155.41
2023-02-16T20:10:01.540Z,99149.16
2023-02-16T20:12:28.723Z,99172.44
2023-02-16T20:15:01.153Z,99163.81
2023-02-16T20:17:27.720Z,99157.28
2023-02-16T20:19:54.214Z,99173.63
2023-02-16T20:22:20.771Z,99167.38
2023-02-16T20:24:47.334Z,99180.31
2023-02-16T20:27:14.080Z,99157.34
2023-02-16T20:29:42.785Z,99155.84
2023-02-16T20:32:09.483Z,99193.72
2023-02-16T20:34:36.056Z,99188.72
2023-02-16T20:37:02.552Z,99191.13
2023-02-16T20:39:29.275Z,99199.09
2023-02-16T20:42:00.093Z,99187.66
2023-02-16T20:44:27.995Z,99192.09
2023-02-16T20:46:56.546Z,99202.84
2023-02-16T20:49:23.141Z,99173.69
2023-02-16T20:51:49.696Z,99192.28
2023-02-16T20:54:16.289Z,99194.00
2023-02-16T20:56:42.814Z,99187.31
2023-02-16T20:59:10.972Z,99190.00
2023-02-16T21:01:40.792Z,99190.44
2023-02-16T21:04:08.201Z,99195.47
2023-02-16T21:06:35.565Z,99204.97
2023-02-16T21:09:02.925Z,99206.50
2023-02-16T21:11:29.511Z,99190.41
2023-02-16T21:13:59.134Z,99188.94
2023-02-16T21:16:30.648Z,99190.88
2023-02-16T21:18:57.905Z,99196.19
2023-02-16T21:21:25.990Z,99184.19
2023-02-16T21:23:54.366Z,99184.31
2023-02-16T21:26:23.918Z,99200.34
2023-02-16T21:28:50.785Z,99202.28
2023-02-16T21:31:21.660Z,99201.19
2023-02-16T21:33:48.738Z,99197.28
2023-02-16T21:36:18.687Z,99195.47
2023-02-16T21:38:45.548Z,99185.00
2023-02-16T21:41:24.896Z,99202.28
2023-02-16T21:43:55.633Z,99204.56
2023-02-16T21:46:23.321Z,99202.59
2023-02-16T21:48:50.362Z,99211.78
2023-02-16T21:51:24.243Z,99203.00
2023-02-16T21:53:51.949Z,99201.03
2023-02-16T21:56:39.939Z,99202.28
2023-02-16T21:59:10.185Z,99194.06
2023-02-16T22:01:48.487Z,99203.41
2023-02-16T22:04:18.594Z,99210.41
2023-02-16T22:06:47.619Z,99211.53
2023-02-16T22:09:18.323Z,99213.31
2023-02-16T22:11:45.933Z,99217.38
2023-02-16T22:14:12.937Z,99210.94
2023-02-16T22:16:39.948Z,99216.13
2023-02-16T22:19:13.023Z,99208.19
2023-02-16T22:21:41.626Z,99213.22
2023-02-16T22:24:10.439Z,99218.50
2023-02-16T22:26:37.394Z,99209.00
2023-02-16T22:29:06.621Z,99215.81
2023-02-16T22:31:34.509Z,99218.50
2023-02-16T22:34:11.703Z,99225.47
2023-02-16T22:36:38.558Z,99217.59
2023-02-16T22:39:06.113Z,99220.63
2023-02-16T22:41:34.314Z,99212.84
2023-02-16T22:44:04.473Z,99218.66
2023-02-16T22:46:32.052Z,99210.34
2023-02-16T22:49:02.924Z,99222.59
2023-02-16T22:51:34.376Z,99223.41
2023-02-16T22:54:02.332Z,99219.25
2023-02-16T22:56:32.391Z,99217.13
2023-02-16T22:59:02.743Z,99233.97
2023-02-16T23:01:33.808Z,99223.66
2023-02-16T23:04:04.199Z,99236.09
2023-02-16T23:06:37.632Z,99233.69
2023-02-16T23:09:12.299Z,99232.91
2023-02-16T23:11:39.232Z,99233.22
2023-02-16T23:14:05.914Z,99227.84
2023-02-16T23:16:35.552Z,99229.00
2023-02-16T23:19:05.239Z,99223.59
2023-02-16T23:21:34.086Z,99242.19
2023-02-16T23:24:02.719Z,99237.44
2023-02-16T23:26:34.438Z,99237.41
2023-02-16T23:29:03.499Z,99245.59
2023-02-16T23:31:34.735Z,99241.66
2023-02-16T23:34:05.485Z,99237.97
2023-02-16T23:36:35.049Z,99233.00
2023-02-16T23:39:05.476Z,99238.59
2023-02-16T23:41:35.564Z,99246.03
2023-02-16T23:44:06.489Z,99245.97
2023-02-16T23:46:36.174Z,99242.19
2023-02-16T23:49:04.802Z,99244.09
2023-02-16T23:51:35.114Z,99238.06
2023-02-16T23:54:02.527Z,99249.56
2023-02-16T23:56:29.600Z,99246.66
2023-02-16T23:58:58.763Z,99238.53
